sensor_id;sensor_type;location;lat;lon;timestamp;P1;durP1;ratioP1;P2;durP2;ratioP2
12076;SDS011;12420;42.676;23.262;2024-01-16T00:02:25;21.70;;;13.90;;
12076;SDS011;12420;42.676;23.262;2024-01-16T00:04:51;19.87;;;14.20;;
12076;SDS011;12420;42.676;23.262;2024-01-16T00:07:18;19.77;;;13.27;;
12076;SDS011;12420;42.676;23.262;2024-01-16T00:09:45;18.93;;;12.90;;
12076;SDS011;12420;42.676;23.262;2024-01-16T00:12:11;20.43;;;12.97;;
12076;SDS011;12420;42.676;23.262;2024-01-16T00:14:38;18.53;;;12.20;;
12076;SDS011;12420;42.676;23.262;2024-01-16T00:17:05;19.87;;;12.70;;
12076;SDS011;12420;42.676;23.262;2024-01-16T00:19:33;18.03;;;12.10;;
12076;SDS011;12420;42.676;23.262;2024-01-16T00:22:00;17.43;;;11.90;;
12076;SDS011;12420;42.676;23.262;2024-01-16T00:24:28;19.53;;;12.67;;
12076;SDS011;12420;42.676;23.262;2024-01-16T00:26:54;18.57;;;12.53;;
12076;SDS011;12420;42.676;23.262;2024-01-16T00:29:21;18.33;;;12.47;;
12076;SDS011;12420;42.676;23.262;2024-01-16T00:31:48;16.33;;;11.67;;
12076;SDS011;12420;42.676;23.262;2024-01-16T00:34:15;16.80;;;11.23;;
12076;SDS011;12420;42.676;23.262;2024-01-16T00:36:43;16.17;;;11.83;;
12076;SDS011;12420;42.676;23.262;2024-01-16T00:39:10;17.27;;;11.70;;
12076;SDS011;12420;42.676;23.262;2024-01-16T00:41:37;16.33;;;11.43;;
12076;SDS011;12420;42.676;23.262;2024-01-16T00:44:03;19.00;;;12.60;;
12076;SDS011;12420;42.676;23.262;2024-01-16T00:46:30;16.60;;;11.87;;
12076;SDS011;12420;42.676;23.262;2024-01-16T00:48:57;18.80;;;11.37;;
12076;SDS011;12420;42.676;23.262;2024-01-16T00:51:23;16.60;;;11.50;;
12076;SDS011;12420;42.676;23.262;2024-01-16T00:53:52;16.63;;;11.40;;
12076;SDS011;12420;42.676;23.262;2024-01-16T00:56:18;18.10;;;11.20;;
12076;SDS011;12420;42.676;23.262;2024-01-16T00:58:45;15.53;;;10.43;;
12076;SDS011;12420;42.676;23.262;2024-01-16T01:01:12;15.30;;;10.57;;
12076;SDS011;12420;42.676;23.262;2024-01-16T01:03:38;14.20;;;10.20;;
12076;SDS011;12420;42.676;23.262;2024-01-16T01:06:05;15.40;;;10.10;;
12076;SDS011;12420;42.676;23.262;2024-01-16T01:08:32;14.77;;;9.60;;
12076;SDS011;12420;42.676;23.262;2024-01-16T01:11:00;12.93;;;9.20;;
12076;SDS011;12420;42.676;23.262;2024-01-16T01:13:28;12.77;;;9.00;;
12076;SDS011;12420;42.676;23.262;2024-01-16T01:15:55;12.70;;;8.73;;
12076;SDS011;12420;42.676;23.262;2024-01-16T01:18:21;13.17;;;9.00;;
12076;SDS011;12420;42.676;23.262;2024-01-16T01:20:48;10.73;;;8.83;;
12076;SDS011;12420;42.676;23.262;2024-01-16T01:23:15;13.20;;;9.03;;
12076;SDS011;12420;42.676;23.262;2024-01-16T01:25:42;14.80;;;9.43;;
12076;SDS011;12420;42.676;23.262;2024-01-16T01:28:10;13.13;;;9.40;;
12076;SDS011;12420;42.676;23.262;2024-01-16T01:30:37;12.23;;;9.50;;
12076;SDS011;12420;42.676;23.262;2024-01-16T01:33:04;11.43;;;8.47;;
12076;SDS011;12420;42.676;23.262;2024-01-16T01:35:31;12.83;;;8.53;;
12076;SDS011;12420;42.676;23.262;2024-01-16T01:37:57;9.37;;;7.90;;
12076;SDS011;12420;42.676;23.262;2024-01-16T01:40:24;12.43;;;8.90;;
12076;SDS011;12420;42.676;23.262;2024-01-16T01:42:51;10.30;;;7.60;;
12076;SDS011;12420;42.676;23.262;2024-01-16T01:45:19;10.67;;;7.87;;
12076;SDS011;12420;42.676;23.262;2024-01-16T01:47:46;12.63;;;8.10;;
12076;SDS011;12420;42.676;23.262;2024-01-16T01:50:13;11.80;;;8.13;;
12076;SDS011;12420;42.676;23.262;2024-01-16T01:52:41;11.70;;;8.50;;
12076;SDS011;12420;42.676;23.262;2024-01-16T01:55:10;9.77;;;7.43;;
12076;SDS011;12420;42.676;23.262;2024-01-16T01:57:39;10.10;;;7.67;;
12076;SDS011;12420;42.676;23.262;2024-01-16T02:00:08;10.23;;;8.13;;
12076;SDS011;12420;42.676;23.262;2024-01-16T02:02:37;10.10;;;8.00;;
12076;SDS011;12420;42.676;23.262;2024-01-16T02:05:04;10.67;;;7.80;;
12076;SDS011;12420;42.676;23.262;2024-01-16T02:07:32;9.47;;;7.20;;
12076;SDS011;12420;42.676;23.262;2024-01-16T02:10:00;8.60;;;7.23;;
12076;SDS011;12420;42.676;23.262;2024-01-16T02:12:28;11.43;;;7.47;;
12076;SDS011;12420;42.676;23.262;2024-01-16T02:14:55;11.73;;;8.87;;
12076;SDS011;12420;42.676;23.262;2024-01-16T02:17:22;8.23;;;6.67;;
12076;SDS011;12420;42.676;23.262;2024-01-16T02:19:50;9.70;;;6.90;;
12076;SDS011;12420;42.676;23.262;2024-01-16T02:22:18;10.80;;;7.10;;
12076;SDS011;12420;42.676;23.262;2024-01-16T02:24:48;9.50;;;7.07;;
12076;SDS011;12420;42.676;23.262;2024-01-16T02:27:15;8.37;;;6.47;;
12076;SDS011;12420;42.676;23.262;2024-01-16T02:29:42;9.03;;;6.80;;
12076;SDS011;12420;42.676;23.262;2024-01-16T02:32:10;9.60;;;6.70;;
12076;SDS011;12420;42.676;23.262;2024-01-16T02:34:38;8.70;;;7.10;;
12076;SDS011;12420;42.676;23.262;2024-01-16T02:37:04;8.17;;;6.20;;
12076;SDS011;12420;42.676;23.262;2024-01-16T02:39:31;8.17;;;6.80;;
12076;SDS011;12420;42.676;23.262;2024-01-16T02:41:59;8.53;;;6.63;;
12076;SDS011;12420;42.676;23.262;2024-01-16T02:44:26;21.73;;;12.67;;
12076;SDS011;12420;42.676;23.262;2024-01-16T02:46:52;15.40;;;9.63;;
12076;SDS011;12420;42.676;23.262;2024-01-16T02:49:19;11.27;;;7.90;;
12076;SDS011;12420;42.676;23.262;2024-01-16T02:51:46;11.93;;;8.33;;
12076;SDS011;12420;42.676;23.262;2024-01-16T02:54:14;10.97;;;9.00;;
12076;SDS011;12420;42.676;23.262;2024-01-16T02:56:40;12.57;;;9.07;;
12076;SDS011;12420;42.676;23.262;2024-01-16T02:59:09;11.87;;;9.20;;
12076;SDS011;12420;42.676;23.262;2024-01-16T03:01:36;9.57;;;7.60;;
12076;SDS011;12420;42.676;23.262;2024-01-16T03:04:03;7.40;;;5.47;;
12076;SDS011;12420;42.676;23.262;2024-01-16T03:06:30;6.93;;;5.40;;
12076;SDS011;12420;42.676;23.262;2024-01-16T03:08:57;4.77;;;4.17;;
12076;SDS011;12420;42.676;23.262;2024-01-16T03:11:23;3.37;;;2.90;;
12076;SDS011;12420;42.676;23.262;2024-01-16T03:13:50;2.57;;;2.37;;
12076;SDS011;12420;42.676;23.262;2024-01-16T03:16:19;2.83;;;2.63;;
12076;SDS011;12420;42.676;23.262;2024-01-16T03:18:46;3.37;;;3.07;;
12076;SDS011;12420;42.676;23.262;2024-01-16T03:21:13;3.37;;;3.10;;
12076;SDS011;12420;42.676;23.262;2024-01-16T03:23:40;3.90;;;3.50;;
12076;SDS011;12420;42.676;23.262;2024-01-16T03:26:11;3.67;;;3.37;;
12076;SDS011;12420;42.676;23.262;2024-01-16T03:28:38;4.27;;;3.43;;
12076;SDS011;12420;42.676;23.262;2024-01-16T03:31:05;4.10;;;3.70;;
12076;SDS011;12420;42.676;23.262;2024-01-16T03:33:33;3.50;;;3.20;;
12076;SDS011;12420;42.676;23.262;2024-01-16T03:36:00;3.60;;;3.30;;
12076;SDS011;12420;42.676;23.262;2024-01-16T03:38:27;4.00;;;3.70;;
12076;SDS011;12420;42.676;23.262;2024-01-16T03:40:54;4.00;;;3.60;;
12076;SDS011;12420;42.676;23.262;2024-01-16T03:43:21;3.57;;;3.27;;
12076;SDS011;12420;42.676;23.262;2024-01-16T03:45:47;3.27;;;3.00;;
12076;SDS011;12420;42.676;23.262;2024-01-16T03:48:14;3.20;;;2.90;;
12076;SDS011;12420;42.676;23.262;2024-01-16T03:50:42;2.80;;;2.60;;
12076;SDS011;12420;42.676;23.262;2024-01-16T03:53:10;2.90;;;2.70;;
12076;SDS011;12420;42.676;23.262;2024-01-16T03:55:37;2.70;;;2.50;;
12076;SDS011;12420;42.676;23.262;2024-01-16T03:58:04;2.60;;;2.40;;
12076;SDS011;12420;42.676;23.262;2024-01-16T04:00:31;2.70;;;2.50;;
12076;SDS011;12420;42.676;23.262;2024-01-16T04:02:58;2.77;;;2.57;;
12076;SDS011;12420;42.676;23.262;2024-01-16T04:05:25;2.80;;;2.60;;
12076;SDS011;12420;42.676;23.262;2024-01-16T04:07:53;2.80;;;2.60;;
12076;SDS011;12420;42.676;23.262;2024-01-16T04:10:19;2.23;;;2.10;;
12076;SDS011;12420;42.676;23.262;2024-01-16T04:12:46;2.70;;;2.50;;
12076;SDS011;12420;42.676;23.262;2024-01-16T04:15:13;2.80;;;2.60;;
12076;SDS011;12420;42.676;23.262;2024-01-16T04:17:39;2.60;;;2.40;;
12076;SDS011;12420;42.676;23.262;2024-01-16T04:20:06;2.30;;;2.20;;
12076;SDS011;12420;42.676;23.262;2024-01-16T04:22:34;2.50;;;2.30;;
12076;SDS011;12420;42.676;23.262;2024-01-16T04:25:02;2.23;;;2.03;;
12076;SDS011;12420;42.676;23.262;2024-01-16T04:27:30;1.90;;;1.80;;
12076;SDS011;12420;42.676;23.262;2024-01-16T04:29:57;2.10;;;2.00;;
12076;SDS011;12420;42.676;23.262;2024-01-16T04:32:24;2.40;;;2.30;;
12076;SDS011;12420;42.676;23.262;2024-01-16T04:34:50;2.10;;;2.00;;
12076;SDS011;12420;42.676;23.262;2024-01-16T04:37:17;1.70;;;1.60;;
12076;SDS011;12420;42.676;23.262;2024-01-16T04:39:43;1.57;;;1.47;;
12076;SDS011;12420;42.676;23.262;2024-01-16T04:42:11;1.90;;;1.80;;
12076;SDS011;12420;42.676;23.262;2024-01-16T04:44:38;1.60;;;1.50;;
12076;SDS011;12420;42.676;23.262;2024-01-16T04:47:05;1.87;;;1.77;;
12076;SDS011;12420;42.676;23.262;2024-01-16T04:49:32;1.70;;;1.60;;
12076;SDS011;12420;42.676;23.262;2024-01-16T04:51:59;2.33;;;1.80;;
12076;SDS011;12420;42.676;23.262;2024-01-16T04:54:26;2.57;;;2.37;;
12076;SDS011;12420;42.676;23.262;2024-01-16T04:56:52;2.50;;;2.30;;
12076;SDS011;12420;42.676;23.262;2024-01-16T04:59:20;3.03;;;2.57;;
12076;SDS011;12420;42.676;23.262;2024-01-16T05:01:47;2.50;;;2.30;;
12076;SDS011;12420;42.676;23.262;2024-01-16T05:04:14;2.00;;;1.90;;
12076;SDS011;12420;42.676;23.262;2024-01-16T05:06:41;1.53;;;1.43;;
12076;SDS011;12420;42.676;23.262;2024-01-16T05:09:07;1.60;;;1.60;;
12076;SDS011;12420;42.676;23.262;2024-01-16T05:11:34;1.93;;;1.80;;
12076;SDS011;12420;42.676;23.262;2024-01-16T05:14:01;1.90;;;1.80;;
12076;SDS011;12420;42.676;23.262;2024-01-16T05:16:29;1.70;;;1.60;;
12076;SDS011;12420;42.676;23.262;2024-01-16T05:18:55;1.70;;;1.60;;
12076;SDS011;12420;42.676;23.262;2024-01-16T05:21:22;2.47;;;2.20;;
12076;SDS011;12420;42.676;23.262;2024-01-16T05:23:49;2.03;;;1.93;;
12076;SDS011;12420;42.676;23.262;2024-01-16T05:26:15;2.57;;;2.37;;
12076;SDS011;12420;42.676;23.262;2024-01-16T05:28:42;2.03;;;1.93;;
12076;SDS011;12420;42.676;23.262;2024-01-16T05:31:09;1.93;;;1.83;;
12076;SDS011;12420;42.676;23.262;2024-01-16T05:33:37;2.00;;;1.90;;
12076;SDS011;12420;42.676;23.262;2024-01-16T05:36:04;2.10;;;1.90;;
12076;SDS011;12420;42.676;23.262;2024-01-16T05:38:31;1.77;;;1.67;;
12076;SDS011;12420;42.676;23.262;2024-01-16T05:40:58;1.93;;;1.83;;
12076;SDS011;12420;42.676;23.262;2024-01-16T05:43:25;1.80;;;1.70;;
12076;SDS011;12420;42.676;23.262;2024-01-16T05:45:53;2.60;;;2.10;;
12076;SDS011;12420;42.676;23.262;2024-01-16T05:48:20;2.00;;;1.90;;
12076;SDS011;12420;42.676;23.262;2024-01-16T05:50:48;2.07;;;1.97;;
12076;SDS011;12420;42.676;23.262;2024-01-16T05:53:15;1.90;;;1.80;;
12076;SDS011;12420;42.676;23.262;2024-01-16T05:55:41;2.07;;;1.90;;
12076;SDS011;12420;42.676;23.262;2024-01-16T05:58:08;1.90;;;1.80;;
12076;SDS011;12420;42.676;23.262;2024-01-16T06:00:35;2.17;;;2.00;;
12076;SDS011;12420;42.676;23.262;2024-01-16T06:03:03;3.10;;;2.80;;
12076;SDS011;12420;42.676;23.262;2024-01-16T06:05:30;2.40;;;2.20;;
12076;SDS011;12420;42.676;23.262;2024-01-16T06:07:58;2.60;;;2.40;;
12076;SDS011;12420;42.676;23.262;2024-01-16T06:10:24;2.10;;;2.00;;
12076;SDS011;12420;42.676;23.262;2024-01-16T06:12:51;2.27;;;2.07;;
12076;SDS011;12420;42.676;23.262;2024-01-16T06:15:18;1.93;;;1.83;;
12076;SDS011;12420;42.676;23.262;2024-01-16T06:17:44;2.07;;;1.97;;
12076;SDS011;12420;42.676;23.262;2024-01-16T06:20:11;2.13;;;2.00;;
12076;SDS011;12420;42.676;23.262;2024-01-16T06:22:38;2.40;;;2.20;;
12076;SDS011;12420;42.676;23.262;2024-01-16T06:25:06;2.63;;;2.43;;
12076;SDS011;12420;42.676;23.262;2024-01-16T06:27:33;2.30;;;2.10;;
12076;SDS011;12420;42.676;23.262;2024-01-16T06:30:00;2.67;;;2.43;;
12076;SDS011;12420;42.676;23.262;2024-01-16T06:32:28;2.00;;;1.90;;
12076;SDS011;12420;42.676;23.262;2024-01-16T06:34:55;2.30;;;2.10;;
12076;SDS011;12420;42.676;23.262;2024-01-16T06:37:22;2.27;;;2.13;;
12076;SDS011;12420;42.676;23.262;2024-01-16T06:39:49;2.20;;;2.10;;
12076;SDS011;12420;42.676;23.262;2024-01-16T06:42:17;2.20;;;2.10;;
12076;SDS011;12420;42.676;23.262;2024-01-16T06:44:44;2.10;;;2.00;;
12076;SDS011;12420;42.676;23.262;2024-01-16T06:47:11;1.63;;;1.50;;
12076;SDS011;12420;42.676;23.262;2024-01-16T06:49:38;1.20;;;1.20;;
12076;SDS011;12420;42.676;23.262;2024-01-16T06:52:04;2.00;;;1.90;;
12076;SDS011;12420;42.676;23.262;2024-01-16T06:54:32;1.40;;;1.30;;
12076;SDS011;12420;42.676;23.262;2024-01-16T06:56:59;1.33;;;1.10;;
12076;SDS011;12420;42.676;23.262;2024-01-16T06:59:27;1.47;;;1.37;;
12076;SDS011;12420;42.676;23.262;2024-01-16T07:01:53;1.30;;;1.20;;
12076;SDS011;12420;42.676;23.262;2024-01-16T07:04:20;1.30;;;1.20;;
12076;SDS011;12420;42.676;23.262;2024-01-16T07:06:47;1.50;;;1.40;;
12076;SDS011;12420;42.676;23.262;2024-01-16T07:09:14;0.97;;;0.97;;
12076;SDS011;12420;42.676;23.262;2024-01-16T07:11:41;1.60;;;1.50;;
12076;SDS011;12420;42.676;23.262;2024-01-16T07:14:09;1.60;;;1.50;;
12076;SDS011;12420;42.676;23.262;2024-01-16T07:16:37;1.23;;;1.13;;
12076;SDS011;12420;42.676;23.262;2024-01-16T07:19:04;3.90;;;1.40;;
12076;SDS011;12420;42.676;23.262;2024-01-16T07:21:31;1.23;;;1.13;;
12076;SDS011;12420;42.676;23.262;2024-01-16T07:23:58;1.20;;;1.10;;
12076;SDS011;12420;42.676;23.262;2024-01-16T07:26:25;3.30;;;2.53;;
12076;SDS011;12420;42.676;23.262;2024-01-16T07:28:52;1.57;;;1.47;;
12076;SDS011;12420;42.676;23.262;2024-01-16T07:31:19;3.97;;;2.93;;
12076;SDS011;12420;42.676;23.262;2024-01-16T07:33:47;10.07;;;4.47;;
12076;SDS011;12420;42.676;23.262;2024-01-16T07:36:14;1.70;;;1.60;;
12076;SDS011;12420;42.676;23.262;2024-01-16T07:38:41;2.70;;;2.17;;
12076;SDS011;12420;42.676;23.262;2024-01-16T07:41:07;1.90;;;1.80;;
12076;SDS011;12420;42.676;23.262;2024-01-16T07:43:34;1.60;;;1.50;;
12076;SDS011;12420;42.676;23.262;2024-01-16T07:46:02;3.80;;;2.80;;
12076;SDS011;12420;42.676;23.262;2024-01-16T07:48:29;1.90;;;1.80;;
12076;SDS011;12420;42.676;23.262;2024-01-16T07:50:57;1.60;;;1.50;;
12076;SDS011;12420;42.676;23.262;2024-01-16T07:53:23;1.60;;;1.50;;
12076;SDS011;12420;42.676;23.262;2024-01-16T07:55:52;1.30;;;1.20;;
12076;SDS011;12420;42.676;23.262;2024-01-16T07:58:19;1.30;;;1.30;;
12076;SDS011;12420;42.676;23.262;2024-01-16T08:00:46;1.43;;;1.40;;
12076;SDS011;12420;42.676;23.262;2024-01-16T08:03:13;1.20;;;1.20;;
12076;SDS011;12420;42.676;23.262;2024-01-16T08:05:40;1.90;;;1.80;;
12076;SDS011;12420;42.676;23.262;2024-01-16T08:08:09;2.20;;;2.00;;
12076;SDS011;12420;42.676;23.262;2024-01-16T08:10:36;2.30;;;2.10;;
12076;SDS011;12420;42.676;23.262;2024-01-16T08:13:02;2.20;;;2.00;;
12076;SDS011;12420;42.676;23.262;2024-01-16T08:15:29;2.20;;;2.00;;
12076;SDS011;12420;42.676;23.262;2024-01-16T08:17:56;1.93;;;1.83;;
12076;SDS011;12420;42.676;23.262;2024-01-16T08:20:23;1.57;;;1.47;;
12076;SDS011;12420;42.676;23.262;2024-01-16T08:22:50;1.60;;;1.50;;
12076;SDS011;12420;42.676;23.262;2024-01-16T08:25:18;2.00;;;1.90;;
12076;SDS011;12420;42.676;23.262;2024-01-16T08:27:45;1.90;;;1.70;;
12076;SDS011;12420;42.676;23.262;2024-01-16T08:30:11;2.87;;;2.03;;
12076;SDS011;12420;42.676;23.262;2024-01-16T08:32:39;1.50;;;1.40;;
12076;SDS011;12420;42.676;23.262;2024-01-16T08:35:05;1.60;;;1.50;;
12076;SDS011;12420;42.676;23.262;2024-01-16T08:37:34;2.10;;;1.90;;
12076;SDS011;12420;42.676;23.262;2024-01-16T08:40:01;1.97;;;1.77;;
12076;SDS011;12420;42.676;23.262;2024-01-16T08:42:29;1.83;;;1.63;;
12076;SDS011;12420;42.676;23.262;2024-01-16T08:44:57;2.87;;;1.80;;
12076;SDS011;12420;42.676;23.262;2024-01-16T08:47:24;2.03;;;1.73;;
12076;SDS011;12420;42.676;23.262;2024-01-16T08:49:50;1.33;;;1.20;;
12076;SDS011;12420;42.676;23.262;2024-01-16T08:52:17;1.30;;;1.20;;
12076;SDS011;12420;42.676;23.262;2024-01-16T08:54:44;1.80;;;1.70;;
12076;SDS011;12420;42.676;23.262;2024-01-16T08:57:11;1.87;;;1.77;;
12076;SDS011;12420;42.676;23.262;2024-01-16T08:59:39;4.87;;;2.30;;
12076;SDS011;12420;42.676;23.262;2024-01-16T09:02:06;2.77;;;2.50;;
12076;SDS011;12420;42.676;23.262;2024-01-16T09:04:33;5.47;;;3.23;;
12076;SDS011;12420;42.676;23.262;2024-01-16T09:07:00;1.53;;;1.43;;
12076;SDS011;12420;42.676;23.262;2024-01-16T09:09:29;3.10;;;2.27;;
12076;SDS011;12420;42.676;23.262;2024-01-16T09:11:56;5.60;;;3.83;;
12076;SDS011;12420;42.676;23.262;2024-01-16T09:14:24;1.70;;;1.60;;
12076;SDS011;12420;42.676;23.262;2024-01-16T09:16:52;2.00;;;1.80;;
12076;SDS011;12420;42.676;23.262;2024-01-16T09:19:19;4.87;;;4.13;;
12076;SDS011;12420;42.676;23.262;2024-01-16T09:21:46;2.07;;;1.87;;
12076;SDS011;12420;42.676;23.262;2024-01-16T09:24:13;2.13;;;1.83;;
12076;SDS011;12420;42.676;23.262;2024-01-16T09:26:39;1.30;;;1.23;;
12076;SDS011;12420;42.676;23.262;2024-01-16T09:29:07;1.50;;;1.40;;
12076;SDS011;12420;42.676;23.262;2024-01-16T09:31:35;2.07;;;1.57;;
12076;SDS011;12420;42.676;23.262;2024-01-16T09:34:03;1.63;;;1.53;;
12076;SDS011;12420;42.676;23.262;2024-01-16T09:36:30;1.97;;;1.87;;
12076;SDS011;12420;42.676;23.262;2024-01-16T09:38:56;1.50;;;1.40;;
12076;SDS011;12420;42.676;23.262;2024-01-16T09:41:23;1.30;;;1.27;;
12076;SDS011;12420;42.676;23.262;2024-01-16T09:43:51;1.63;;;1.53;;
12076;SDS011;12420;42.676;23.262;2024-01-16T09:46:18;1.70;;;1.60;;
12076;SDS011;12420;42.676;23.262;2024-01-16T09:48:48;5.17;;;1.90;;
12076;SDS011;12420;42.676;23.262;2024-01-16T09:51:20;1.60;;;1.50;;
12076;SDS011;12420;42.676;23.262;2024-01-16T09:53:47;1.40;;;1.30;;
12076;SDS011;12420;42.676;23.262;2024-01-16T09:56:15;1.73;;;1.50;;
12076;SDS011;12420;42.676;23.262;2024-01-16T09:58:42;3.33;;;2.77;;
12076;SDS011;12420;42.676;23.262;2024-01-16T10:01:10;2.93;;;1.90;;
12076;SDS011;12420;42.676;23.262;2024-01-16T10:03:38;2.40;;;2.20;;
12076;SDS011;12420;42.676;23.262;2024-01-16T10:06:07;1.33;;;1.23;;
12076;SDS011;12420;42.676;23.262;2024-01-16T10:08:38;1.70;;;1.60;;
12076;SDS011;12420;42.676;23.262;2024-01-16T10:11:06;2.10;;;1.80;;
12076;SDS011;12420;42.676;23.262;2024-01-16T10:13:33;1.97;;;1.83;;
12076;SDS011;12420;42.676;23.262;2024-01-16T10:16:01;1.57;;;1.20;;
12076;SDS011;12420;42.676;23.262;2024-01-16T10:18:29;1.30;;;1.20;;
12076;SDS011;12420;42.676;23.262;2024-01-16T10:20:56;1.50;;;1.40;;
12076;SDS011;12420;42.676;23.262;2024-01-16T10:23:23;1.40;;;1.30;;
12076;SDS011;12420;42.676;23.262;2024-01-16T10:26:07;1.33;;;1.30;;
12076;SDS011;12420;42.676;23.262;2024-01-16T10:28:35;1.20;;;1.10;;
12076;SDS011;12420;42.676;23.262;2024-01-16T10:31:02;1.40;;;1.30;;
12076;SDS011;12420;42.676;23.262;2024-01-16T10:33:30;1.30;;;1.20;;
12076;SDS011;12420;42.676;23.262;2024-01-16T10:36:09;1.00;;;1.00;;
12076;SDS011;12420;42.676;23.262;2024-01-16T10:38:37;1.10;;;1.10;;
12076;SDS011;12420;42.676;23.262;2024-01-16T10:41:08;1.27;;;1.27;;
12076;SDS011;12420;42.676;23.262;2024-01-16T10:43:36;1.27;;;1.17;;
12076;SDS011;12420;42.676;23.262;2024-01-16T10:46:07;1.73;;;1.63;;
12076;SDS011;12420;42.676;23.262;2024-01-16T10:48:36;1.50;;;1.40;;
12076;SDS011;12420;42.676;23.262;2024-01-16T10:51:05;1.50;;;1.40;;
12076;SDS011;12420;42.676;23.262;2024-01-16T10:53:33;1.63;;;1.50;;
12076;SDS011;12420;42.676;23.262;2024-01-16T10:56:01;1.80;;;1.70;;
12076;SDS011;12420;42.676;23.262;2024-01-16T10:58:31;2.67;;;1.83;;
12076;SDS011;12420;42.676;23.262;2024-01-16T11:01:01;2.37;;;2.17;;
12076;SDS011;12420;42.676;23.262;2024-01-16T11:03:35;1.90;;;1.73;;
12076;SDS011;12420;42.676;23.262;2024-01-16T11:06:05;2.10;;;1.90;;
12076;SDS011;12420;42.676;23.262;2024-01-16T11:08:33;1.57;;;1.47;;
12076;SDS011;12420;42.676;23.262;2024-01-16T11:11:02;1.70;;;1.60;;
12076;SDS011;12420;42.676;23.262;2024-01-16T11:13:32;2.20;;;2.00;;
12076;SDS011;12420;42.676;23.262;2024-01-16T11:16:00;2.57;;;2.00;;
12076;SDS011;12420;42.676;23.262;2024-01-16T11:18:28;1.57;;;1.47;;
12076;SDS011;12420;42.676;23.262;2024-01-16T11:20:57;2.30;;;2.13;;
12076;SDS011;12420;42.676;23.262;2024-01-16T11:23:24;1.90;;;1.80;;
12076;SDS011;12420;42.676;23.262;2024-01-16T11:25:51;1.90;;;1.80;;
12076;SDS011;12420;42.676;23.262;2024-01-16T11:28:18;1.80;;;1.70;;
12076;SDS011;12420;42.676;23.262;2024-01-16T11:30:46;1.83;;;1.73;;
12076;SDS011;12420;42.676;23.262;2024-01-16T11:39:08;2.40;;;2.30;;
12076;SDS011;12420;42.676;23.262;2024-01-16T11:41:50;2.10;;;1.90;;
12076;SDS011;12420;42.676;23.262;2024-01-16T11:47:08;2.20;;;2.00;;
12076;SDS011;12420;42.676;23.262;2024-01-16T11:49:36;4.20;;;2.20;;
12076;SDS011;12420;42.676;23.262;2024-01-16T11:52:03;2.47;;;2.27;;
12076;SDS011;12420;42.676;23.262;2024-01-16T11:54:30;3.67;;;2.50;;
12076;SDS011;12420;42.676;23.262;2024-01-16T12:00:18;2.40;;;2.20;;
12076;SDS011;12420;42.676;23.262;2024-01-16T12:02:51;1.97;;;1.87;;
12076;SDS011;12420;42.676;23.262;2024-01-16T12:05:19;4.77;;;1.70;;
12076;SDS011;12420;42.676;23.262;2024-01-16T12:07:47;5.73;;;3.83;;
12076;SDS011;12420;42.676;23.262;2024-01-16T12:10:15;2.83;;;2.20;;
12076;SDS011;12420;42.676;23.262;2024-01-16T12:12:43;2.00;;;1.90;;
12076;SDS011;12420;42.676;23.262;2024-01-16T12:15:13;1.90;;;1.80;;
12076;SDS011;12420;42.676;23.262;2024-01-16T12:17:52;1.60;;;1.50;;
12076;SDS011;12420;42.676;23.262;2024-01-16T12:20:20;2.50;;;2.30;;
12076;SDS011;12420;42.676;23.262;2024-01-16T12:22:52;2.40;;;2.20;;
12076;SDS011;12420;42.676;23.262;2024-01-16T12:25:19;1.87;;;1.77;;
12076;SDS011;12420;42.676;23.262;2024-01-16T12:27:46;1.53;;;1.50;;
12076;SDS011;12420;42.676;23.262;2024-01-16T12:30:21;2.60;;;2.33;;
12076;SDS011;12420;42.676;23.262;2024-01-16T12:32:49;1.60;;;1.50;;
12076;SDS011;12420;42.676;23.262;2024-01-16T12:35:20;1.83;;;1.70;;
12076;SDS011;12420;42.676;23.262;2024-01-16T12:38:01;1.70;;;1.60;;
12076;SDS011;12420;42.676;23.262;2024-01-16T12:40:30;2.50;;;1.70;;
12076;SDS011;12420;42.676;23.262;2024-01-16T12:42:57;1.60;;;1.50;;
12076;SDS011;12420;42.676;23.262;2024-01-16T12:45:24;1.73;;;1.63;;
12076;SDS011;12420;42.676;23.262;2024-01-16T12:47:53;1.90;;;1.70;;
12076;SDS011;12420;42.676;23.262;2024-01-16T12:50:24;1.77;;;1.67;;
12076;SDS011;12420;42.676;23.262;2024-01-16T12:53:00;1.80;;;1.70;;
12076;SDS011;12420;42.676;23.262;2024-01-16T12:55:27;1.90;;;1.80;;
12076;SDS011;12420;42.676;23.262;2024-01-16T13:00:43;2.30;;;2.00;;
12076;SDS011;12420;42.676;23.262;2024-01-16T13:03:16;2.47;;;2.27;;
12076;SDS011;12420;42.676;23.262;2024-01-16T13:05:46;1.87;;;1.70;;
12076;SDS011;12420;42.676;23.262;2024-01-16T13:08:20;4.73;;;2.60;;
12076;SDS011;12420;42.676;23.262;2024-01-16T13:11:01;1.73;;;1.63;;
12076;SDS011;12420;42.676;23.262;2024-01-16T13:13:29;1.90;;;1.80;;
12076;SDS011;12420;42.676;23.262;2024-01-16T13:15:57;1.67;;;1.57;;
12076;SDS011;12420;42.676;23.262;2024-01-16T13:18:24;1.40;;;1.30;;
12076;SDS011;12420;42.676;23.262;2024-01-16T13:20:53;1.77;;;1.50;;
12076;SDS011;12420;42.676;23.262;2024-01-16T13:23:21;1.70;;;1.60;;
12076;SDS011;12420;42.676;23.262;2024-01-16T13:25:50;3.87;;;2.50;;
12076;SDS011;12420;42.676;23.262;2024-01-16T13:28:17;3.63;;;2.93;;
12076;SDS011;12420;42.676;23.262;2024-01-16T13:30:46;3.27;;;2.83;;
12076;SDS011;12420;42.676;23.262;2024-01-16T13:33:13;3.77;;;3.17;;
12076;SDS011;12420;42.676;23.262;2024-01-16T13:35:41;2.70;;;2.50;;
12076;SDS011;12420;42.676;23.262;2024-01-16T13:38:11;6.93;;;5.20;;
12076;SDS011;12420;42.676;23.262;2024-01-16T13:40:40;4.70;;;2.80;;
12076;SDS011;12420;42.676;23.262;2024-01-16T13:43:07;2.57;;;2.37;;
12076;SDS011;12420;42.676;23.262;2024-01-16T13:45:34;3.60;;;2.73;;
12076;SDS011;12420;42.676;23.262;2024-01-16T13:48:01;3.50;;;2.10;;
12076;SDS011;12420;42.676;23.262;2024-01-16T13:50:30;3.40;;;2.73;;
12076;SDS011;12420;42.676;23.262;2024-01-16T13:52:58;3.40;;;3.07;;
12076;SDS011;12420;42.676;23.262;2024-01-16T13:55:26;5.80;;;4.10;;
12076;SDS011;12420;42.676;23.262;2024-01-16T13:57:53;7.73;;;4.40;;
12076;SDS011;12420;42.676;23.262;2024-01-16T14:00:20;4.27;;;3.13;;
12076;SDS011;12420;42.676;23.262;2024-01-16T14:02:47;4.17;;;2.80;;
12076;SDS011;12420;42.676;23.262;2024-01-16T14:05:15;2.80;;;2.60;;
12076;SDS011;12420;42.676;23.262;2024-01-16T14:07:44;2.57;;;2.37;;
12076;SDS011;12420;42.676;23.262;2024-01-16T14:10:12;3.50;;;3.03;;
12076;SDS011;12420;42.676;23.262;2024-01-16T14:12:41;3.27;;;2.93;;
12076;SDS011;12420;42.676;23.262;2024-01-16T14:15:09;2.50;;;2.30;;
12076;SDS011;12420;42.676;23.262;2024-01-16T14:17:41;2.23;;;2.10;;
12076;SDS011;12420;42.676;23.262;2024-01-16T14:20:09;2.77;;;2.57;;
12076;SDS011;12420;42.676;23.262;2024-01-16T14:22:37;3.10;;;2.80;;
12076;SDS011;12420;42.676;23.262;2024-01-16T14:25:05;7.13;;;3.23;;
12076;SDS011;12420;42.676;23.262;2024-01-16T14:27:35;5.37;;;3.63;;
12076;SDS011;12420;42.676;23.262;2024-01-16T14:30:06;6.77;;;3.70;;
12076;SDS011;12420;42.676;23.262;2024-01-16T14:32:35;6.83;;;3.90;;
12076;SDS011;12420;42.676;23.262;2024-01-16T14:35:03;3.93;;;3.23;;
12076;SDS011;12420;42.676;23.262;2024-01-16T14:37:30;5.73;;;4.20;;
12076;SDS011;12420;42.676;23.262;2024-01-16T14:39:57;5.70;;;3.90;;
12076;SDS011;12420;42.676;23.262;2024-01-16T14:42:26;4.23;;;3.07;;
12076;SDS011;12420;42.676;23.262;2024-01-16T14:44:53;5.63;;;3.80;;
12076;SDS011;12420;42.676;23.262;2024-01-16T14:47:21;4.90;;;3.93;;
12076;SDS011;12420;42.676;23.262;2024-01-16T14:49:49;5.10;;;4.33;;